sensor_id;sensor_type;location;lat;lon;timestamp;pressure;altitude;pressure_sealevel;temperature;humidity
1832;BME280;1680;48.106;11.708;2023-03-04T00:00:03;95865.16;;;1.39;100.00
1832;BME280;1680;48.106;11.708;2023-03-04T00:02:33;95865.16;;;1.39;100.00
1832;BME280;1680;48.106;11.708;2023-03-04T00:05:00;95859.00;;;1.40;100.00
1832;BME280;1680;48.106;11.708;2023-03-04T00:07:28;95857.72;;;1.44;100.00
1832;BME280;1680;48.106;11.708;2023-03-04T00:09:55;95857.72;;;1.36;100.00
1832;BME280;1680;48.106;11.708;2023-03-04T00:12:23;95857.88;;;1.42;100.00
1832;BME280;1680;48.106;11.708;2023-03-04T00:14:50;95861.91;;;1.37;100.00
1832;BME280;1680;48.106;11.708;2023-03-04T00:17:17;95860.91;;;1.30;100.00
1832;BME280;1680;48.106;11.708;2023-03-04T00:19:46;95864.47;;;1.29;100.00
1832;BME280;1680;48.106;11.708;2023-03-04T00:22:14;95863.84;;;1.35;100.00
1832;BME280;1680;48.106;11.708;2023-03-04T00:24:41;95866.41;;;1.35;100.00
1832;BME280;1680;48.106;11.708;2023-03-04T00:27:08;95861.09;;;1.36;100.00
1832;BME280;1680;48.106;11.708;2023-03-04T00:29:35;95870.63;;;1.36;100.00
1832;BME280;1680;48.106;11.708;2023-03-04T00:32:03;95871.41;;;1.36;100.00
1832;BME280;1680;48.106;11.708;2023-03-04T00:34:31;95872.56;;;1.34;100.00
1832;BME280;1680;48.106;11.708;2023-03-04T00:36:59;95871.59;;;1.35;100.00
1832;BME280;1680;48.106;11.708;2023-03-04T00:39:28;95873.88;;;1.38;100.00
1832;BME280;1680;48.106;11.708;2023-03-04T00:41:55;95879.03;;;1.38;100.00
1832;BME280;1680;48.106;11.708;2023-03-04T00:44:22;95872.06;;;1.38;100.00
1832;BME280;1680;48.106;11.708;2023-03-04T00:46:50;95881.25;;;1.33;100.00
1832;BME280;1680;48.106;11.708;2023-03-04T00:49:17;95872.38;;;1.27;100.00
1832;BME280;1680;48.106;11.708;2023-03-04T00:51:45;95867.69;;;1.31;100.00
1832;BME280;1680;48.106;11.708;2023-03-04T00:54:14;95864.16;;;1.24;100.00
1832;BME280;1680;48.106;11.708;2023-03-04T00:56:41;95869.97;;;1.26;100.00
1832;BME280;1680;48.106;11.708;2023-03-04T00:59:08;95872.69;;;1.24;100.00
1832;BME280;1680;48.106;11.708;2023-03-04T01:01:35;95878.31;;;1.20;100.00
1832;BME280;1680;48.106;11.708;2023-03-04T01:04:03;95868.97;;;1.19;100.00
1832;BME280;1680;48.106;11.708;2023-03-04T01:06:31;95868.31;;;1.17;100.00
1832;BME280;1680;48.106;11.708;2023-03-04T01:08:58;95863.13;;;1.17;100.00
1832;BME280;1680;48.106;11.708;2023-03-04T01:11:27;95857.00;;;1.18;100.00
1832;BME280;1680;48.106;11.708;2023-03-04T01:13:55;95847.50;;;1.18;100.00
1832;BME280;1680;48.106;11.708;2023-03-04T01:16:22;95851.38;;;1.14;100.00
1832;BME280;1680;48.106;11.708;2023-03-04T01:18:49;95851.50;;;1.13;100.00
1832;BME280;1680;48.106;11.708;2023-03-04T01:21:17;95848.28;;;1.11;100.00
1832;BME280;1680;48.106;11.708;2023-03-04T01:23:44;95852.16;;;1.07;100.00
1832;BME280;1680;48.106;11.708;2023-03-04T01:26:11;95853.09;;;1.06;100.00
1832;BME280;1680;48.106;11.708;2023-03-04T01:28:40;95845.03;;;1.01;100.00
1832;BME280;1680;48.106;11.708;2023-03-04T01:31:07;95836.31;;;1.02;100.00
1832;BME280;1680;48.106;11.708;2023-03-04T01:33:35;95844.06;;;1.02;100.00
1832;BME280;1680;48.106;11.708;2023-03-04T01:36:02;95842.28;;;1.02;100.00
1832;BME280;1680;48.106;11.708;2023-03-04T01:38:30;95838.41;;;1.06;100.00
1832;BME280;1680;48.106;11.708;2023-03-04T01:40:57;95845.38;;;1.14;100.00
1832;BME280;1680;48.106;11.708;2023-03-04T01:43:26;95844.09;;;1.18;100.00
1832;BME280;1680;48.106;11.708;2023-03-04T01:45:56;95839.59;;;1.12;100.00
1832;BME280;1680;48.106;11.708;2023-03-04T01:48:26;95812.75;;;0.97;100.00
1832;BME280;1680;48.106;11.708;2023-03-04T01:50:54;95827.94;;;1.16;100.00
1832;BME280;1680;48.106;11.708;2023-03-04T01:53:25;95834.13;;;1.23;100.00
1832;BME280;1680;48.106;11.708;2023-03-04T01:55:55;95826.34;;;1.15;100.00
1832;BME280;1680;48.106;11.708;2023-03-04T01:58:23;95810.97;;;1.05;100.00
1832;BME280;1680;48.106;11.708;2023-03-04T02:00:52;95819.91;;;1.19;100.00
1832;BME280;1680;48.106;11.708;2023-03-04T02:03:21;95823.09;;;1.13;100.00
1832;BME280;1680;48.106;11.708;2023-03-04T02:05:50;95812.47;;;1.08;100.00
1832;BME280;1680;48.106;11.708;2023-03-04T02:08:20;95808.25;;;1.07;100.00
1832;BME280;1680;48.106;11.708;2023-03-04T02:10:48;95811.31;;;1.10;100.00
1832;BME280;1680;48.106;11.708;2023-03-04T02:13:16;95806.63;;;1.06;100.00
1832;BME280;1680;48.106;11.708;2023-03-04T02:15:45;95800.03;;;1.03;100.00
1832;BME280;1680;48.106;11.708;2023-03-04T02:18:15;95812.09;;;1.03;100.00
1832;BME280;1680;48.106;11.708;2023-03-04T02:20:54;95797.28;;;0.97;100.00
1832;BME280;1680;48.106;11.708;2023-03-04T02:23:31;95808.56;;;0.96;100.00
1832;BME280;1680;48.106;11.708;2023-03-04T02:26:11;95801.91;;;0.93;100.00
1832;BME280;1680;48.106;11.708;2023-03-04T02:28:38;95794.34;;;0.92;100.00
1832;BME280;1680;48.106;11.708;2023-03-04T02:31:10;95796.09;;;0.92;100.00
1832;BME280;1680;48.106;11.708;2023-03-04T02:33:43;95796.75;;;0.93;100.00
1832;BME280;1680;48.106;11.708;2023-03-04T02:36:11;95796.63;;;0.95;100.00
1832;BME280;1680;48.106;11.708;2023-03-04T02:38:38;95797.56;;;0.94;100.00
1832;BME280;1680;48.106;11.708;2023-03-04T02:41:09;95789.00;;;0.86;100.00
1832;BME280;1680;48.106;11.708;2023-03-04T02:43:38;95793.03;;;0.88;100.00
1832;BME280;1680;48.106;11.708;2023-03-04T02:46:07;95791.09;;;0.82;100.00
1832;BME280;1680;48.106;11.708;2023-03-04T02:48:36;95793.50;;;0.84;100.00
1832;BME280;1680;48.106;11.708;2023-03-04T02:51:04;95797.53;;;0.86;100.00
1832;BME280;1680;48.106;11.708;2023-03-04T02:53:31;95790.44;;;0.88;100.00
1832;BME280;1680;48.106;11.708;2023-03-04T02:55:59;95792.25;;;0.88;100.00
1832;BME280;1680;48.106;11.708;2023-03-04T02:58:28;95794.16;;;0.86;100.00
1832;BME280;1680;48.106;11.708;2023-03-04T03:00:57;95786.06;;;0.81;100.00
1832;BME280;1680;48.106;11.708;2023-03-04T03:03:24;95790.25;;;0.74;100.00
1832;BME280;1680;48.106;11.708;2023-03-04T03:05:53;95785.88;;;0.74;100.00
1832;BME280;1680;48.106;11.708;2023-03-04T03:08:20;95782.66;;;0.72;100.00
1832;BME280;1680;48.106;11.708;2023-03-04T03:10:48;95787.03;;;0.72;100.00
1832;BME280;1680;48.106;11.708;2023-03-04T03:13:16;95787.81;;;0.72;100.00
1832;BME280;1680;48.106;11.708;2023-03-04T03:15:45;95782.97;;;0.69;100.00
1832;BME280;1680;48.106;11.708;2023-03-04T03:18:14;95787.50;;;0.67;100.00
1832;BME280;1680;48.106;11.708;2023-03-04T03:20:42;95786.50;;;0.68;100.00
1832;BME280;1680;48.106;11.708;2023-03-04T03:23:09;95794.41;;;0.67;100.00
1832;BME280;1680;48.106;11.708;2023-03-04T03:25:36;95790.69;;;0.61;100.00
1832;BME280;1680;48.106;11.708;2023-03-04T03:28:04;95793.56;;;0.50;100.00
1832;BME280;1680;48.106;11.708;2023-03-04T03:30:31;95798.06;;;0.56;100.00
1832;BME280;1680;48.106;11.708;2023-03-04T03:33:00;95794.53;;;0.49;100.00
1832;BME280;1680;48.106;11.708;2023-03-04T03:35:27;95803.88;;;0.50;100.00
1832;BME280;1680;48.106;11.708;2023-03-04T03:37:54;95805.31;;;0.53;100.00
1832;BME280;1680;48.106;11.708;2023-03-04T03:40:22;95801.63;;;0.55;100.00
1832;BME280;1680;48.106;11.708;2023-03-04T03:42:49;95798.06;;;0.56;100.00
1832;BME280;1680;48.106;11.708;2023-03-04T03:45:16;95798.72;;;0.50;100.00
1832;BME280;1680;48.106;11.708;2023-03-04T03:47:44;95774.78;;;0.40;100.00
1832;BME280;1680;48.106;11.708;2023-03-04T03:50:13;95797.75;;;0.51;100.00
1832;BME280;1680;48.106;11.708;2023-03-04T03:52:40;95802.75;;;0.53;100.00
1832;BME280;1680;48.106;11.708;2023-03-04T03:55:08;95795.19;;;0.51;100.00
1832;BME280;1680;48.106;11.708;2023-03-04T03:57:36;95799.81;;;0.48;100.00
1832;BME280;1680;48.106;11.708;2023-03-04T04:00:04;95768.00;;;0.31;100.00
1832;BME280;1680;48.106;11.708;2023-03-04T04:02:32;95787.38;;;0.43;100.00
1832;BME280;1680;48.106;11.708;2023-03-04T04:05:00;95768.00;;;0.31;100.00
1832;BME280;1680;48.106;11.708;2023-03-04T04:07:28;95789.97;;;0.43;100.00
1832;BME280;1680;48.106;11.708;2023-03-04T04:09:55;95799.97;;;0.46;100.00
1832;BME280;1680;48.106;11.708;2023-03-04T04:12:23;95792.53;;;0.43;100.00
1832;BME280;1680;48.106;11.708;2023-03-04T04:14:50;95791.22;;;0.39;100.00
1832;BME280;1680;48.106;11.708;2023-03-04T04:17:18;95793.47;;;0.34;100.00
1832;BME280;1680;48.106;11.708;2023-03-04T04:19:45;95791.88;;;0.33;100.00
1832;BME280;1680;48.106;11.708;2023-03-04T04:22:13;95794.09;;;0.28;100.00
1832;BME280;1680;48.106;11.708;2023-03-04T04:24:43;95790.19;;;0.24;100.00
1832;BME280;1680;48.106;11.708;2023-03-04T04:27:10;95790.53;;;0.21;100.00
1832;BME280;1680;48.106;11.708;2023-03-04T04:29:37;95794.72;;;0.22;100.00
1832;BME280;1680;48.106;11.708;2023-03-04T04:32:05;95794.72;;;0.22;100.00
1832;BME280;1680;48.106;11.708;2023-03-04T04:34:33;95794.84;;;0.21;100.00
1832;BME280;1680;48.106;11.708;2023-03-04T04:37:00;95791.16;;;0.23;100.00
1832;BME280;1680;48.106;11.708;2023-03-04T04:39:28;95793.09;;;0.21;100.00
1832;BME280;1680;48.106;11.708;2023-03-04T04:41:56;95794.72;;;0.22;100.00
1832;BME280;1680;48.106;11.708;2023-03-04T04:44:23;95788.63;;;0.31;100.00
1832;BME280;1680;48.106;11.708;2023-03-04T04:46:51;95780.59;;;0.34;100.00
1832;BME280;1680;48.106;11.708;2023-03-04T04:49:18;95787.66;;;0.32;100.00
1832;BME280;1680;48.106;11.708;2023-03-04T04:51:45;95789.41;;;0.32;100.00
1832;BME280;1680;48.106;11.708;2023-03-04T04:54:13;95790.53;;;0.29;100.00
1832;BME280;1680;48.106;11.708;2023-03-04T04:56:41;95791.19;;;0.31;100.00
1832;BME280;1680;48.106;11.708;2023-03-04T04:59:10;95790.06;;;0.26;100.00
1832;BME280;1680;48.106;11.708;2023-03-04T05:01:37;95787.78;;;0.23;100.00
1832;BME280;1680;48.106;11.708;2023-03-04T05:04:05;95791.66;;;0.27;100.00
1832;BME280;1680;48.106;11.708;2023-03-04T05:06:32;95788.94;;;0.28;100.00
1832;BME280;1680;48.106;11.708;2023-03-04T05:09:00;95789.88;;;0.27;100.00
1832;BME280;1680;48.106;11.708;2023-03-04T05:11:27;95794.38;;;0.25;100.00
1832;BME280;1680;48.106;11.708;2023-03-04T05:13:54;95796.31;;;0.23;100.00
1832;BME280;1680;48.106;11.708;2023-03-04T05:16:23;95794.72;;;0.22;100.00
1832;BME280;1680;48.106;11.708;2023-03-04T05:18:50;95791.97;;;0.24;100.00
1832;BME280;1680;48.106;11.708;2023-03-04T05:21:17;95795.63;;;0.13;100.00
1832;BME280;1680;48.106;11.708;2023-03-04T05:23:45;95791.09;;;0.07;100.00
1832;BME280;1680;48.106;11.708;2023-03-04T05:26:15;95789.13;;;0.09;100.00
1832;BME280;1680;48.106;11.708;2023-03-04T05:28:43;95794.28;;;0.09;100.00
1832;BME280;1680;48.106;11.708;2023-03-04T05:31:10;95791.31;;;-0.03;100.00
1832;BME280;1680;48.106;11.708;2023-03-04T05:33:39;95791.88;;;0.08;100.00
1832;BME280;1680;48.106;11.708;2023-03-04T05:36:07;95807.06;;;0.11;100.00
1832;BME280;1680;48.106;11.708;2023-03-04T05:38:35;95798.16;;;0.05;100.00
1832;BME280;1680;48.106;11.708;2023-03-04T05:41:04;95798.81;;;0.07;100.00
1832;BME280;1680;48.106;11.708;2023-03-04T05:43:32;95787.84;;;0.05;100.00
1832;BME280;1680;48.106;11.708;2023-03-04T05:46:01;95799.13;;;0.04;100.00
1832;BME280;1680;48.106;11.708;2023-03-04T05:48:28;95793.00;;;0.05;100.00
1832;BME280;1680;48.106;11.708;2023-03-04T05:50:58;95800.94;;;0.12;100.00
1832;BME280;1680;48.106;11.708;2023-03-04T05:53:26;95803.63;;;0.02;100.00
1832;BME280;1680;48.106;11.708;2023-03-04T05:55:54;95806.69;;;0.06;100.00
1832;BME280;1680;48.106;11.708;2023-03-04T05:58:23;95800.41;;;0.08;100.00
1832;BME280;1680;48.106;11.708;2023-03-04T06:00:50;95771.75;;;-0.14;100.00
1832;BME280;1680;48.106;11.708;2023-03-04T06:03:20;95806.22;;;0.10;100.00
1832;BME280;1680;48.106;11.708;2023-03-04T06:05:48;95802.97;;;0.08;100.00
1832;BME280;1680;48.106;11.708;2023-03-04T06:08:16;95811.72;;;0.07;100.00
1832;BME280;1680;48.106;11.708;2023-03-04T06:10:44;95813.63;;;0.05;100.00
1832;BME280;1680;48.106;11.708;2023-03-04T06:13:11;95809.47;;;0.12;100.00
1832;BME280;1680;48.106;11.708;2023-03-04T06:15:39;95823.00;;;0.14;100.00
1832;BME280;1680;48.106;11.708;2023-03-04T06:18:06;95818.03;;;0.13;100.00
1832;BME280;1680;48.106;11.708;2023-03-04T06:20:34;95748.25;;;-0.36;100.00
1832;BME280;1680;48.106;11.708;2023-03-04T06:23:01;95829.13;;;0.13;100.00
1832;BME280;1680;48.106;11.708;2023-03-04T06:25:30;95829.13;;;0.13;100.00
1832;BME280;1680;48.106;11.708;2023-03-04T06:27:57;95836.56;;;0.16;100.00
1832;BME280;1680;48.106;11.708;2023-03-04T06:30:24;95825.28;;;0.17;100.00
1832;BME280;1680;48.106;11.708;2023-03-04T06:32:52;95813.66;;;0.13;100.00
1832;BME280;1680;48.106;11.708;2023-03-04T06:35:19;95827.03;;;0.17;100.00
1832;BME280;1680;48.106;11.708;2023-03-04T06:37:46;95833.91;;;0.34;100.00
1832;BME280;1680;48.106;11.708;2023-03-04T06:40:13;95842.22;;;0.45;100.00
1832;BME280;1680;48.106;11.708;2023-03-04T06:42:42;95845.16;;;0.50;100.00
1832;BME280;1680;48.106;11.708;2023-03-04T06:45:10;95844.81;;;0.53;100.00
1832;BME280;1680;48.106;11.708;2023-03-04T06:47:37;95845.47;;;0.55;100.00
1832;BME280;1680;48.106;11.708;2023-03-04T06:50:05;95838.25;;;0.59;100.00
1832;BME280;1680;48.106;11.708;2023-03-04T06:52:32;95844.91;;;0.69;100.00
1832;BME280;1680;48.106;11.708;2023-03-04T06:54:59;95847.53;;;0.77;100.00
1832;BME280;1680;48.106;11.708;2023-03-04T06:57:27;95843.34;;;0.84;100.00
1832;BME280;1680;48.106;11.708;2023-03-04T06:59:55;95852.41;;;0.88;100.00
1832;BME280;1680;48.106;11.708;2023-03-04T07:02:23;95847.28;;;0.96;100.00
1832;BME280;1680;48.106;11.708;2023-03-04T07:04:50;95855.53;;;1.07;100.00
1832;BME280;1680;48.106;11.708;2023-03-04T07:07:17;95857.00;;;1.18;100.00
1832;BME280;1680;48.106;11.708;2023-03-04T07:09:44;95850.72;;;1.20;100.00
1832;BME280;1680;48.106;11.708;2023-03-04T07:12:11;95853.81;;;1.24;100.00
1832;BME280;1680;48.106;11.708;2023-03-04T07:14:39;95861.91;;;1.37;100.00
1832;BME280;1680;48.106;11.708;2023-03-04T07:17:07;95855.94;;;1.44;100.00
1832;BME280;1680;48.106;11.708;2023-03-04T07:19:35;95834.47;;;1.52;100.00
1832;BME280;1680;48.106;11.708;2023-03-04T07:22:02;95858.06;;;1.65;100.00
1832;BME280;1680;48.106;11.708;2023-03-04T07:24:29;95852.25;;;1.79;100.00
1832;BME280;1680;48.106;11.708;2023-03-04T07:26:57;95859.69;;;1.74;100.00
1832;BME280;1680;48.106;11.708;2023-03-04T07:29:24;95866.97;;;2.02;100.00
1832;BME280;1680;48.106;11.708;2023-03-04T07:31:51;95864.53;;;2.08;100.00
1832;BME280;1680;48.106;11.708;2023-03-04T07:34:21;95871.50;;;2.00;100.00
1832;BME280;1680;48.106;11.708;2023-03-04T07:36:48;95866.13;;;2.17;100.00
1832;BME280;1680;48.106;11.708;2023-03-04T07:39:15;95874.53;;;2.35;100.00
1832;BME280;1680;48.106;11.708;2023-03-04T07:41:42;95875.34;;;2.44;100.00
1832;BME280;1680;48.106;11.708;2023-03-04T07:44:10;95875.63;;;2.57;100.00
1832;BME280;1680;48.106;11.708;2023-03-04T07:46:39;95870.59;;;2.63;100.00
1832;BME280;1680;48.106;11.708;2023-03-04T07:49:06;95876.78;;;2.62;100.00
1832;BME280;1680;48.106;11.708;2023-03-04T07:51:35;95879.59;;;2.83;100.00
1832;BME280;1680;48.106;11.708;2023-03-04T07:54:02;95883.03;;;2.76;100.00
1832;BME280;1680;48.106;11.708;2023-03-04T07:56:31;95872.81;;;2.90;100.00
1832;BME280;1680;48.106;11.708;2023-03-04T07:58:59;95860.69;;;2.83;100.00
1832;BME280;1680;48.106;11.708;2023-03-04T08:01:28;95884.72;;;3.07;100.00
1832;BME280;1680;48.106;11.708;2023-03-04T08:03:56;95832.91;;;2.69;100.00
1832;BME280;1680;48.106;11.708;2023-03-04T08:06:24;95895.63;;;3.25;100.00
1832;BME280;1680;48.106;11.708;2023-03-04T08:08:56;95895.47;;;3.26;100.00
1832;BME280;1680;48.106;11.708;2023-03-04T08:11:25;95878.25;;;3.03;100.00
1832;BME280;1680;48.106;11.708;2023-03-04T08:13:52;95894.31;;;3.29;100.00
1832;BME280;1680;48.106;11.708;2023-03-04T08:16:21;95905.66;;;3.36;100.00
1832;BME280;1680;48.106;11.708;2023-03-04T08:18:51;95900.66;;;3.57;100.00
1832;BME280;1680;48.106;11.708;2023-03-04T08:21:19;95895.41;;;3.42;100.00
1832;BME280;1680;48.106;11.708;2023-03-04T08:23:47;95890.28;;;3.57;100.00
1832;BME280;1680;48.106;11.708;2023-03-04T08:26:18;95899.00;;;3.64;100.00
1832;BME280;1680;48.106;11.708;2023-03-04T08:28:46;95903.50;;;3.70;100.00
1832;BME280;1680;48.106;11.708;2023-03-04T08:31:14;95892.66;;;3.66;100.00
1832;BME280;1680;48.106;11.708;2023-03-04T08:33:41;95891.78;;;3.82;100.00
1832;BME280;1680;48.106;11.708;2023-03-04T08:36:09;95882.31;;;3.88;100.00
1832;BME280;1680;48.106;11.708;2023-03-04T08:38:36;95885.19;;;3.93;100.00
1832;BME280;1680;48.106;11.708;2023-03-04T08:41:04;95891.38;;;3.92;100.00
1832;BME280;1680;48.106;11.708;2023-03-04T08:43:33;95894.88;;;3.99;100.00
1832;BME280;1680;48.106;11.708;2023-03-04T08:46:00;95868.00;;;3.92;100.00
1832;BME280;1680;48.106;11.708;2023-03-04T08:48:27;95893.06;;;4.22;100.00
1832;BME280;1680;48.106;11.708;2023-03-04T08:50:55;95888.94;;;4.50;97.51
1832;BME280;1680;48.106;11.708;2023-03-04T08:53:22;95890.44;;;4.45;98.12
1832;BME280;1680;48.106;11.708;2023-03-04T08:55:50;95902.91;;;4.49;96.54
1832;BME280;1680;48.106;11.708;2023-03-04T08:58:18;95893.19;;;4.43;96.36
1832;BME280;1680;48.106;11.708;2023-03-04T09:00:48;95883.53;;;4.37;94.77
1832;BME280;1680;48.106;11.708;2023-03-04T09:03:16;95889.28;;;4.47;93.82
1832;BME280;1680;48.106;11.708;2023-03-04T09:05:45;95899.53;;;4.63;94.83
1832;BME280;1680;48.106;11.708;2023-03-04T09:08:13;95889.94;;;4.78;92.69
1832;BME280;1680;48.106;11.708;2023-03-04T09:10:40;95885.47;;;4.86;92.81
1832;BME280;1680;48.106;11.708;2023-03-04T09:13:08;95891.75;;;4.78;92.79
1832;BME280;1680;48.106;11.708;2023-03-04T09:15:36;95885.56;;;4.93;91.32
1832;BME280;1680;48.106;11.708;2023-03-04T09:18:05;95879.66;;;4.99;90.21
1832;BME280;1680;48.106;11.708;2023-03-04T09:20:33;95861.19;;;4.94;90.50
1832;BME280;1680;48.106;11.708;2023-03-04T09:23:00;95882.91;;;5.01;89.66
1832;BME280;1680;48.106;11.708;2023-03-04T09:25:27;95864.34;;;4.89;89.78
1832;BME280;1680;48.106;11.708;2023-03-04T09:27:54;95863.69;;;5.02;90.43
1832;BME280;1680;48.106;11.708;2023-03-04T09:30:22;95872.81;;;5.12;88.13
1832;BME280;1680;48.106;11.708;2023-03-04T09:32:49;95876.81;;;5.08;87.87
1832;BME280;1680;48.106;11.708;2023-03-04T09:35:18;95867.97;;;5.24;86.75
1832;BME280;1680;48.106;11.708;2023-03-04T09:37:45;95862.16;;;5.22;86.62
1832;BME280;1680;48.106;11.708;2023-03-04T09:40:17;95876.41;;;5.26;87.43
1832;BME280;1680;48.106;11.708;2023-03-04T09:42:46;95868.13;;;5.37;86.04
1832;BME280;1680;48.106;11.708;2023-03-04T09:45:16;95872.00;;;5.41;85.21
1832;BME280;1680;48.106;11.708;2023-03-04T09:47:45;95868.56;;;5.55;85.44
1832;BME280;1680;48.106;11.708;2023-03-04T09:50:13;95873.28;;;5.66;84.75
1832;BME280;1680;48.106;11.708;2023-03-04T09:52:53;95878.47;;;5.66;84.07
1832;BME280;1680;48.106;11.708;2023-03-04T09:55:30;95834.38;;;5.58;82.81
1832;BME280;1680;48.106;11.708;2023-03-04T09:58:04;95866.72;;;5.84;83.25
1832;BME280;1680;48.106;11.708;2023-03-04T10:00:38;95865.28;;;5.81;82.23
1832;BME280;1680;48.106;11.708;2023-03-04T10:03:13;95872.06;;;6.45;82.85
1832;BME280;1680;48.106;11.708;2023-03-04T10:05:45;95867.31;;;6.28;80.87
1832;BME280;1680;48.106;11.708;2023-03-04T10:08:39;95865.41;;;6.15;79.88
1832;BME280;1680;48.106;11.708;2023-03-04T10:11:12;95862.78;;;6.15;78.54
1832;BME280;1680;48.106;11.708;2023-03-04T10:13:47;95854.78;;;6.17;78.80
1832;BME280;1680;48.106;11.708;2023-03-04T10:16:20;95865.78;;;6.12;78.12
1832;BME280;1680;48.106;11.708;2023-03-04T10:18:52;95855.00;;;6.15;76.42
1832;BME280;1680;48.106;11.708;2023-03-04T10:21:26;95847.03;;;6.23;76.21
1832;BME280;1680;48.106;11.708;2023-03-04T10:23:56;95846.50;;;6.28;76.55
1832;BME280;1680;48.106;11.708;2023-03-04T10:26:29;95857.19;;;6.39;74.59
1832;BME280;1680;48.106;11.708;2023-03-04T10:28:58;95844.03;;;6.47;74.58
1832;BME280;1680;48.106;11.708;2023-03-04T10:31:31;95852.78;;;6.40;74.41
1832;BME280;1680;48.106;11.708;2023-03-04T10:34:01;95848.03;;;6.50;73.50
1832;BME280;1680;48.106;11.708;2023-03-04T10:36:45;95838.00;;;6.47;73.53
1832;BME280;1680;48.106;11.708;2023-03-04T10:39:19;95844.03;;;6.47;73.28
1832;BME280;1680;48.106;11.708;2023-03-04T10:41:55;95838.91;;;6.60;74.45
1832;BME280;1680;48.106;11.708;2023-03-04T10:44:23;95832.88;;;6.60;74.28
1832;BME280;1680;48.106;11.708;2023-03-04T10:46:52;95830.34;;;6.66;74.32
1832;BME280;1680;48.106;11.708;2023-03-04T10:49:21;95835.38;;;6.74;74.67
1832;BME280;1680;48.106;11.708;2023-03-04T10:51:54;95832.47;;;6.90;73.13
1832;BME280;1680;48.106;11.708;2023-03-04T10:54:29;95830.34;;;7.06;72.71
1832;BME280;1680;48.106;11.708;2023-03-04T10:56:59;95821.16;;;7.10;73.51
1832;BME280;1680;48.106;11.708;2023-03-04T10:59:34;95821.41;;;7.22;72.42
1832;BME280;1680;48.106;11.708;2023-03-04T11:02:18;95815.97;;;7.17;74.14
1832;BME280;1680;48.106;11.708;2023-03-04T11:05:05;95822.84;;;7.31;72.60
1832;BME280;1680;48.106;11.708;2023-03-04T11:07:38;95820.44;;;7.36;72.39
1832;BME280;1680;48.106;11.708;2023-03-04T11:10:16;95807.78;;;7.33;72.70
1832;BME280;1680;48.106;11.708;2023-03-04T11:12:48;95817.84;;;7.36;73.80
1832;BME280;1680;48.106;11.708;2023-03-04T11:15:17;95814.09;;;7.58;72.91
1832;BME280;1680;48.106;11.708;2023-03-04T11:17:49;95812.53;;;7.76;71.56
1832;BME280;1680;48.106;11.708;2023-03-04T11:20:27;95756.63;;;7.38;70.58
1832;BME280;1680;48.106;11.708;2023-03-04T11:22:56;95812.53;;;7.63;70.25
1832;BME280;1680;48.106;11.708;2023-03-04T11:25:30;95812.75;;;7.87;70.13
1832;BME280;1680;48.106;11.708;2023-03-04T11:28:01;95814.13;;;7.64;69.23
1832;BME280;1680;48.106;11.708;2023-03-04T11:30:37;95810.28;;;7.60;69.22
1832;BME280;1680;48.106;11.708;2023-03-04T11:33:13;95808.91;;;7.64;70.36
1832;BME280;1680;48.106;11.708;2023-03-04T11:35:47;95810.06;;;7.49;69.50
1832;BME280;1680;48.106;11.708;2023-03-04T11:38:18;95805.69;;;7.68;70.32
1832;BME280;1680;48.106;11.708;2023-03-04T11:40:51;95800.88;;;7.72;70.04
1832;BME280;1680;48.106;11.708;2023-03-04T11:43:24;95810.34;;;7.92;71.24
1832;BME280;1680;48.106;11.708;2023-03-04T11:49:39;95799.28;;;7.77;69.46
1832;BME280;1680;48.106;11.708;2023-03-04T11:52:18;95804.88;;;7.68;68.37
1832;BME280;1680;48.106;11.708;2023-03-04T11:55:02;95799.50;;;7.82;69.72
1832;BME280;1680;48.106;11.708;2023-03-04T11:57:37;95797.88;;;7.81;68.54
1832;BME280;1680;48.106;11.708;2023-03-04T12:00:19;95794.88;;;7.84;68.87
1832;BME280;1680;48.106;11.708;2023-03-04T12:03:14;95790.03;;;7.68;69.21
1832;BME280;1680;48.106;11.708;2023-03-04T12:05:50;95787.25;;;7.83;70.63
1832;BME280;1680;48.106;11.708;2023-03-04T12:08:31;95784.44;;;7.71;68.76
1832;BME280;1680;48.106;11.708;2023-03-04T12:11:04;95766.34;;;7.64;69.42
1832;BME280;1680;48.106;11.708;2023-03-04T12:13:44;95775.41;;;7.80;69.99
1832;BME280;1680;48.106;11.708;2023-03-04T12:16:30;95753.72;;;7.86;68.79
1832;BME280;1680;48.106;11.708;2023-03-04T12:19:14;95758.94;;;8.12;69.13
1832;BME280;1680;48.106;11.708;2023-03-04T12:21:58;95762.78;;;8.23;68.27
1832;BME280;1680;48.106;11.708;2023-03-04T12:24:49;95757.13;;;8.32;67.34
1832;BME280;1680;48.106;11.708;2023-03-04T12:27:26;95766.38;;;8.41;68.72
1832;BME280;1680;48.106;11.708;2023-03-04T12:30:02;95752.94;;;8.31;68.19
1832;BME280;1680;48.106;11.708;2023-03-04T12:32:36;95756.72;;;8.35;66.69
1832;BME280;1680;48.106;11.708;2023-03-04T12:35:22;95744.28;;;8.24;66.63
1832;BME280;1680;48.106;11.708;2023-03-04T12:38:01;95742.69;;;8.23;66.57
1832;BME280;1680;48.106;11.708;2023-03-04T12:40:46;95703.69;;;8.02;66.31
1832;BME280;1680;48.106;11.708;2023-03-04T12:43:28;95739.44;;;8.28;66.67
1832;BME280;1680;48.106;11.708;2023-03-04T12:46:05;95730.00;;;8.33;66.13
1832;BME280;1680;48.106;11.708;2023-03-04T12:48:38;95701.28;;;8.20;66.87
1832;BME280;1680;48.106;11.708;2023-03-04T12:51:15;95727.00;;;8.30;67.51
1832;BME280;1680;48.106;11.708;2023-03-04T12:53:52;95723.16;;;8.52;67.17
1832;BME280;1680;48.106;11.708;2023-03-04T12:56:25;95727.25;;;8.85;66.88
1832;BME280;1680;48.106;11.708;2023-03-04T12:58:54;95718.16;;;8.94;65.62
1832;BME280;1680;48.106;11.708;2023-03-04T13:01:27;95703.47;;;8.93;65.25
1832;BME280;1680;48.106;11.708;2023-03-04T13:04:01;95721.91;;;9.11;64.36
1832;BME280;1680;48.106;11.708;2023-03-04T13:06:40;95712.72;;;9.02;64.79
1832;BME280;1680;48.106;11.708;2023-03-04T13:09:16;95709.50;;;9.00;64.52
1832;BME280;1680;48.106;11.708;2023-03-04T13:11:54;95705.88;;;9.01;64.49
1832;BME280;1680;48.106;11.708;2023-03-04T13:14:30;95711.00;;;9.20;65.51
1832;BME280;1680;48.106;11.708;2023-03-04T13:17:01;95703.31;;;9.32;64.81
1832;BME280;1680;48.106;11.708;2023-03-04T13:19:47;95711.16;;;9.32;64.72
1832;BME280;1680;48.106;11.708;2023-03-04T13:22:31;95710.22;;;9.20;65.78
1832;BME280;1680;48.106;11.708;2023-03-04T13:25:26;95701.88;;;8.92;66.43
1832;BME280;1680;48.106;11.708;2023-03-04T13:28:11;95710.84;;;8.59;67.89
1832;BME280;1680;48.106;11.708;2023-03-04T13:31:10;95696.84;;;8.40;68.83
1832;BME280;1680;48.106;11.708;2023-03-04T13:33:49;95699.28;;;8.22;69.18